Frej — SBPT — position and weather

sailwx.info

Track history (hours):
 
Tides and Currents Weather Stations Pressure Air Temp Water Temp Dewpoint Dewpoint Depression Visibility Wind Speed Wind Dir Waves Ship Positions

Frej

Last reported at 2016-Apr-29 18:00 UTC. Time now 2016-Apr-29 21:45 UTC.
Position N 65°00' E 022°12'.

Length 108 m; draft 7.8 m.

Type: Other ship. MMSI: 265068000.

Wind from 160 at 14 knots

Barometer 1028.0 mb
Air temperature 3.1 ° C
Water temperature 0.6 ° C

Date/timePositionNaut miles runAvg speedWind from/ knotsBaromVisibWave heightAir tempDewpointWater temp
2016-Apr-29 18:00N 65°00' E 022°12'1414.0 160 / 141028.0 3.1 0.6
2016-Apr-29 17:00N 65°06' E 021°42'7 3.3 160 / 141027.8 2.0 1.7
2016-Apr-29 15:00N 65°12' E 021°36'0 0.0 180 / 161027.4 3.1 2.1
2016-Apr-29 13:00N 65°12' E 021°36'0 0.0 160 / 121026.3 3.0 2.1
2016-Apr-29 12:00N 65°12' E 021°36'0 0.0 180 / 171025.6 4.2 2.0
2016-Apr-29 11:00N 65°12' E 021°36'0 0.0 180 / 141024.7 3.3 1.9
2016-Apr-29 09:00N 65°12' E 021°36'0 0.0 180 / 121023.0 2.0 1.7
2016-Apr-29 07:00N 65°12' E 021°36'0 0.0 170 / 121020.7 2.8 1.7
2016-Apr-29 06:00N 65°12' E 021°36'0 0.0 140 / 211019.9 5.2 1.7
2016-Apr-29 05:00N 65°12' E 021°36'0 0.0 110 / 101019.3 6.5 1.7
2016-Apr-29 04:00N 65°12' E 021°36'0 0.0 090 / 141019.0 4.5 1.9
2016-Apr-29 03:00N 65°12' E 021°36'0 0.0 100 / 171018.8 4.7 2.0
2016-Apr-29 02:00N 65°12' E 021°36'0 0.0 060 / 141018.6 5.7 1.9
2016-Apr-29 01:00N 65°12' E 021°36'0 0.0 030 / 121018.8 4.8 1.9
2016-Apr-28 23:00N 65°12' E 021°36'0 0.0 040 / 171019.9 5.4 1.9
2016-Apr-28 21:00N 65°12' E 021°36'0 0.0 020 / 101020.7 5.8 1.7
2016-Apr-28 20:00N 65°12' E 021°36'0 0.0 050 / 61021.5 5.9 1.8
2016-Apr-28 19:00N 65°12' E 021°36'0 0.0 020 / 41022.0 6.5 1.7
2016-Apr-28 17:00N 65°12' E 021°36'1414.2 030 / 141021.8 7.2 1.8
2016-Apr-28 16:00N 65°00' E 021°54'1312.7 1021.8 3.9 0.8
2016-Apr-28 15:00N 65°00' E 022°24'12 3.9 090 / 121022.1 3.1 0.6
2016-Apr-28 12:00N 65°06' E 022°48'0 0.0 1023.3 2.4 0.5
2016-Apr-28 11:00N 65°06' E 022°48'0 0.0 010 / 161023.9 2.1 0.5
2016-Apr-28 10:00N 65°06' E 022°48'0 0.0 010 / 171024.1 1.9 0.5
2016-Apr-28 09:00N 65°06' E 022°48'0 0.0 020 / 141024.4 1.3 0.5
2016-Apr-28 08:00N 65°06' E 022°48'0 0.0 210 / 21024.3 2.7 0.6
2016-Apr-28 06:00N 65°06' E 022°48'0 0.0 090 / 81024.2 2.0 0.6
2016-Apr-28 05:00N 65°06' E 022°48'0 0.0 090 / 101023.6 1.7 0.5
2016-Apr-28 04:00N 65°06' E 022°48'6 6.0 100 / 141023.1 1.2 0.4
2016-Apr-28 03:00N 65°00' E 022°48'1312.7 080 / 141022.5 0.6 0.3
2016-Apr-28 02:00N 65°00' E 022°18'14 4.7 110 / 121021.9 1.3 1.1
2016-Apr-27 23:00N 65°12' E 022°36'8 7.6 150 / 81020.5 1.7 0.3
2016-Apr-27 22:00N 65°12' E 022°54'3 2.5 210 / 101019.8 1.6 0.7
2016-Apr-27 21:00N 65°12' E 022°48'0 0.0 190 / 81018.9 1.5 0.6
2016-Apr-27 20:00N 65°12' E 022°48'0 0.0 210 / 121017.7 1.6 0.6
2016-Apr-27 19:00N 65°12' E 022°48'0 0.0 220 / 141016.2 1.9 0.5
2016-Apr-27 17:00N 65°12' E 022°48'0 0.0 210 / 121013.0 2.2 0.7
2016-Apr-27 16:00N 65°12' E 022°48'6 6.0 210 / 141011.4 2.1 0.6
2016-Apr-27 15:00N 65°06' E 022°48'0 0.0 200 / 171009.8 3.9 0.5
2016-Apr-27 14:00N 65°06' E 022°48'0 0.0 130 / 171007.8 4.6 0.5
2016-Apr-27 13:00N 65°06' E 022°48'0 0.0 130 / 161006.8 5.1 0.5
2016-Apr-27 12:00N 65°06' E 022°48'0 0.0 120 / 171005.8 4.5 0.5
2016-Apr-27 11:00N 65°06' E 022°48'0 0.0 120 / 171005.1 4.3 0.5
2016-Apr-27 10:00N 65°06' E 022°48'0 0.0 110 / 191004.4 3.8 0.5
2016-Apr-27 09:00N 65°06' E 022°48'1414.0 100 / 231003.4 3.6 0.3
2016-Apr-27 08:00N 65°00' E 022°18'1010.1 100 / 271002.2 3.4 0.5
2016-Apr-27 07:00N 65°00' E 021°54'8 7.9 090 / 251002.1 3.5 0.6
2016-Apr-27 06:00N 65°06' E 021°42'19 6.2 160 / 161002.9 3.9 0.5
2016-Apr-27 03:00N 65°00' E 022°24'0 0.0 110 / 211002.9 4.3 1.1
2016-Apr-27 01:00N 65°00' E 022°24'3 1.3 100 / 191002.8 3.2 1.0
2016-Apr-26 23:00N 65°00' E 022°30'0 0.0 080 / 191003.8 3.1 0.6
2016-Apr-26 22:00N 65°00' E 022°30'0 0.0 080 / 211005.0 3.5 0.4
2016-Apr-26 21:00N 65°00' E 022°30'0 0.0 020 / 161006.2 1.2 0.4
2016-Apr-26 20:00N 65°00' E 022°30'14 7.0 010 / 211007.9 0.8 0.4
2016-Apr-26 18:00N 65°06' E 023°00'1212.0 010 / 81009.9 0.9 0.3
2016-Apr-26 17:00N 65°18' E 023°00'10 9.6 350 / 251010.8 1.1 0.3
2016-Apr-26 16:00N 65°24' E 022°42'1211.6 340 / 191012.7 1.3 0.8
2016-Apr-26 15:00N 65°30' E 022°18'0 0.0 010 / 61014.2 2.4 0.6
2016-Apr-26 14:00N 65°30' E 022°18'6 6.5 050 / 61014.6 3.4 0.7
2016-Apr-26 13:00N 65°36' E 022°12'0 0.0 070 / 21015.1 4.0 1.0
2016-Apr-26 12:00N 65°36' E 022°12'0 0.0 100 / 61015.4 4.2 0.9
2016-Apr-26 11:00N 65°36' E 022°12'0 0.0 050 / 61015.8 4.4 1.0
2016-Apr-26 09:00N 65°36' E 022°12'0 0.0 140 / 61016.1 3.4 1.0
2016-Apr-26 08:00N 65°36' E 022°12'0 0.0 160 / 81016.1 2.9 1.0
2016-Apr-25 21:00N 65°36' E 022°12'0 0.0 140 / 121008.2 1.3 1.1
2016-Apr-25 20:00N 65°36' E 022°12'3010.0 130 / 121007.4 1.8 0.6
2016-Apr-25 17:00N 65°06' E 022°18'4113.6 090 / 141003.9 1.0 0.4
2016-Apr-25 14:00N 64°42' E 023°36'1312.8 080 / 231004.3 1.2 0.4
2016-Apr-25 13:00N 64°42' E 024°06'1010.3 090 / 271004.6 2.0 0.6
2016-Apr-25 12:00N 64°42' E 023°42'0 0.0 290 / 121003.5 0.8 0.4
2016-Apr-25 11:00N 64°42' E 023°42'0 0.0 060 / 291004.5 0.9 0.5
2016-Apr-25 10:00N 64°42' E 023°42'13 6.5 060 / 231004.9 1.7 0.5
2016-Apr-25 08:00N 64°54' E 023°54'0 0.0 050 / 231007.9 1.1 0.4
2016-Apr-25 07:00N 64°54' E 023°54'12 3.1 060 / 271007.7 0.4 0.3
2016-Apr-25 03:00N 64°42' E 024°00'0 0.0 060 / 171009.8 -0.3 0.5
2016-Apr-25 01:00N 64°42' E 024°00'0 0.0 060 / 141011.0 -0.1 0.6
2016-Apr-25 00:00N 64°42' E 024°00'0 0.0 060 / 121011.4 -0.1 0.6
2016-Apr-24 22:00N 64°42' E 024°00'3 0.6 060 / 121011.7 0.1 0.6
2016-Apr-24 18:00N 64°42' E 024°06'7 6.5 030 / 141011.7 0.8 0.5
2016-Apr-24 17:00N 64°36' E 024°00'1414.3 050 / 141011.4 0.7 0.5
2016-Apr-24 16:00N 64°24' E 023°42'7 6.5 040 / 211010.8 0.3 1.0
2016-Apr-24 15:00N 64°18' E 023°36'26 3.3 040 / 161011.0 1.4 2.3
2016-Apr-24 07:00N 64°42' E 024°00'0 0.0 030 / 81011.8 -0.4 0.7
2016-Apr-24 06:00N 64°42' E 024°00'0 0.0 030 / 101011.5 -0.4 0.8
2016-Apr-24 03:00N 64°42' E 024°00'0 0.0 010 / 121011.0 -1.0 0.7
2016-Apr-24 02:00N 64°42' E 024°00'0 0.0 020 / 101011.0 0.3 0.6
2016-Apr-24 01:00N 64°42' E 024°00'3 1.3 010 / 141010.9 -0.7 0.6
2016-Apr-23 23:00N 64°42' E 024°06'0 0.0 1010.5 -1.4 0.7
2016-Apr-23 19:00N 64°42' E 024°06'0 0.0 350 / 101009.4 -0.8 0.8
2016-Apr-23 15:00N 64°42' E 024°06'13 3.3 350 / 141008.1 -0.0 0.9
2016-Apr-23 11:00N 64°54' E 023°54'0 0.0 010 / 81008.1 0.5 0.3
2016-Apr-23 07:00N 64°54' E 023°54'0 0.0 030 / 61007.2 0.2 0.3
2016-Apr-23 03:00N 64°54' E 023°54'0 0.0 030 / 81006.6 -0.3 0.3
2016-Apr-23 02:00N 64°54' E 023°54'3 0.4 1006.7 0.2 0.3
2016-Apr-22 19:00N 64°54' E 024°00'0 0.0 330 / 81006.5 -1.1 0.6
2016-Apr-22 17:00N 64°54' E 024°00'0 0.0 320 / 101006.9 0.1 0.7
2016-Apr-22 14:00N 64°54' E 024°00'0 0.0 340 / 121007.0 0.3 0.6
2016-Apr-22 09:00N 64°54' E 024°00'3 0.5 010 / 81007.1 -0.1 0.6
2016-Apr-22 04:00N 64°54' E 023°54'1212.0 050 / 101007.0 -0.6 0.2
2016-Apr-22 03:00N 64°42' E 023°54'5 5.1 020 / 101006.9 -1.8 0.3
2016-Apr-22 02:00N 64°42' E 024°06'0 0.0 020 / 61007.0 -1.2 0.8
2016-Apr-22 01:00N 64°42' E 024°06'0 0.0 010 / 61007.1 -1.4 0.8
2016-Apr-21 23:00N 64°42' E 024°06'0 0.0 010 / 61007.5 -1.1 1.0
2016-Apr-21 21:00N 64°42' E 024°06'0 0.0 030 / 81007.8 -1.3 0.9
2016-Apr-21 19:00N 64°42' E 024°06'3 0.3 210 / 21008.3 -0.9 0.7
2016-Apr-21 09:00N 64°42' E 024°00'0 0.0 280 / 41012.5 -0.8 0.5
2016-Apr-21 08:00N 64°42' E 024°00'3 2.6 010 / 61012.5 -0.9 0.3
2016-Apr-21 07:00N 64°42' E 023°54'1414.2 330 / 41012.9 -0.6 0.4
2016-Apr-21 06:00N 64°54' E 023°36'21 5.2 330 / 41013.2 -1.2 0.3
2016-Apr-21 02:00N 64°36' E 024°00'0 0.0 340 / 121014.2 -0.9 0.5
2016-Apr-21 01:00N 64°36' E 024°00'6 1.2 340 / 101014.4 -0.9 0.4
2016-Apr-20 20:00N 64°42' E 024°00'0 0.0 350 / 161015.5 0.7 0.5
2016-Apr-20 19:00N 64°42' E 024°00'3 2.6 1015.8 1.0 0.4
2016-Apr-20 18:00N 64°42' E 024°06'24 8.0 1015.1 1.0 0.3
2016-Apr-20 15:00N 65°06' E 024°12'13 2.5 350 / 211014.0 1.1 0.5
2016-Apr-20 10:00N 65°06' E 024°42'17 8.7 1011.2 1.1 0.5
2016-Apr-20 08:00N 64°54' E 024°12'5 5.1 020 / 271008.7 0.6 0.3
2016-Apr-20 07:00N 64°54' E 024°00'12 0.9 1009.3 0.3 0.4
2016-Apr-19 18:00N 64°42' E 024°06'   020 / 101001.1 0.4 0.8
Track history (hours):
 
Tides and Currents Weather Stations Pressure Air Temp Water Temp Dewpoint Dewpoint Depression Visibility Wind Speed Wind Dir Waves Ship Positions

Frej

Last reported at 2016-Apr-29 18:00 UTC. Time now 2016-Apr-29 21:45 UTC.
Position N 65°00' E 022°12'.

Length 108 m; draft 7.8 m.

Type: Other ship. MMSI: 265068000.

Wind from 160 at 14 knots

Barometer 1028.0 mb
Air temperature 3.1 ° C
Water temperature 0.6 ° C

Date/timePositionNaut miles runAvg speedWind from/ knotsBaromVisibWave heightAir tempDewpointWater temp
2016-Apr-29 18:00N 65°00' E 022°12'1414.0 160 / 141028.0 3.1 0.6
2016-Apr-29 17:00N 65°06' E 021°42'7 3.3 160 / 141027.8 2.0 1.7
2016-Apr-29 15:00N 65°12' E 021°36'0 0.0 180 / 161027.4 3.1 2.1
2016-Apr-29 13:00N 65°12' E 021°36'0 0.0 160 / 121026.3 3.0 2.1
2016-Apr-29 12:00N 65°12' E 021°36'0 0.0 180 / 171025.6 4.2 2.0
2016-Apr-29 11:00N 65°12' E 021°36'0 0.0 180 / 141024.7 3.3 1.9
2016-Apr-29 09:00N 65°12' E 021°36'0 0.0 180 / 121023.0 2.0 1.7
2016-Apr-29 07:00N 65°12' E 021°36'0 0.0 170 / 121020.7 2.8 1.7
2016-Apr-29 06:00N 65°12' E 021°36'0 0.0 140 / 211019.9 5.2 1.7
2016-Apr-29 05:00N 65°12' E 021°36'0 0.0 110 / 101019.3 6.5 1.7
2016-Apr-29 04:00N 65°12' E 021°36'0 0.0 090 / 141019.0 4.5 1.9
2016-Apr-29 03:00N 65°12' E 021°36'0 0.0 100 / 171018.8 4.7 2.0
2016-Apr-29 02:00N 65°12' E 021°36'0 0.0 060 / 141018.6 5.7 1.9
2016-Apr-29 01:00N 65°12' E 021°36'0 0.0 030 / 121018.8 4.8 1.9
2016-Apr-28 23:00N 65°12' E 021°36'0 0.0 040 / 171019.9 5.4 1.9
2016-Apr-28 21:00N 65°12' E 021°36'0 0.0 020 / 101020.7 5.8 1.7
2016-Apr-28 20:00N 65°12' E 021°36'0 0.0 050 / 61021.5 5.9 1.8
2016-Apr-28 19:00N 65°12' E 021°36'0 0.0 020 / 41022.0 6.5 1.7
2016-Apr-28 17:00N 65°12' E 021°36'1414.2 030 / 141021.8 7.2 1.8
2016-Apr-28 16:00N 65°00' E 021°54'1312.7 1021.8 3.9 0.8
2016-Apr-28 15:00N 65°00' E 022°24'12 3.9 090 / 121022.1 3.1 0.6
2016-Apr-28 12:00N 65°06' E 022°48'0 0.0 1023.3 2.4 0.5
2016-Apr-28 11:00N 65°06' E 022°48'0 0.0 010 / 161023.9 2.1 0.5
2016-Apr-28 10:00N 65°06' E 022°48'0 0.0 010 / 171024.1 1.9 0.5
2016-Apr-28 09:00N 65°06' E 022°48'0 0.0 020 / 141024.4 1.3 0.5
2016-Apr-28 08:00N 65°06' E 022°48'0 0.0 210 / 21024.3 2.7 0.6
2016-Apr-28 06:00N 65°06' E 022°48'0 0.0 090 / 81024.2 2.0 0.6
2016-Apr-28 05:00N 65°06' E 022°48'0 0.0 090 / 101023.6 1.7 0.5
2016-Apr-28 04:00N 65°06' E 022°48'6 6.0 100 / 141023.1 1.2 0.4
2016-Apr-28 03:00N 65°00' E 022°48'1312.7 080 / 141022.5 0.6 0.3
2016-Apr-28 02:00N 65°00' E 022°18'14 4.7 110 / 121021.9 1.3 1.1
2016-Apr-27 23:00N 65°12' E 022°36'8 7.6 150 / 81020.5 1.7 0.3
2016-Apr-27 22:00N 65°12' E 022°54'3 2.5 210 / 101019.8 1.6 0.7
2016-Apr-27 21:00N 65°12' E 022°48'0 0.0 190 / 81018.9 1.5 0.6
2016-Apr-27 20:00N 65°12' E 022°48'0 0.0 210 / 121017.7 1.6 0.6
2016-Apr-27 19:00N 65°12' E 022°48'0 0.0 220 / 141016.2 1.9 0.5
2016-Apr-27 17:00N 65°12' E 022°48'0 0.0 210 / 121013.0 2.2 0.7
2016-Apr-27 16:00N 65°12' E 022°48'6 6.0 210 / 141011.4 2.1 0.6
2016-Apr-27 15:00N 65°06' E 022°48'0 0.0 200 / 171009.8 3.9 0.5
2016-Apr-27 14:00N 65°06' E 022°48'0 0.0 130 / 171007.8 4.6 0.5
2016-Apr-27 13:00N 65°06' E 022°48'0 0.0 130 / 161006.8 5.1 0.5
2016-Apr-27 12:00N 65°06' E 022°48'0 0.0 120 / 171005.8 4.5 0.5
2016-Apr-27 11:00N 65°06' E 022°48'0 0.0 120 / 171005.1 4.3 0.5
2016-Apr-27 10:00N 65°06' E 022°48'0 0.0 110 / 191004.4 3.8 0.5
2016-Apr-27 09:00N 65°06' E 022°48'1414.0 100 / 231003.4 3.6 0.3
2016-Apr-27 08:00N 65°00' E 022°18'1010.1 100 / 271002.2 3.4 0.5
2016-Apr-27 07:00N 65°00' E 021°54'8 7.9 090 / 251002.1 3.5 0.6
2016-Apr-27 06:00N 65°06' E 021°42'19 6.2 160 / 161002.9 3.9 0.5
2016-Apr-27 03:00N 65°00' E 022°24'0 0.0 110 / 211002.9 4.3 1.1
2016-Apr-27 01:00N 65°00' E 022°24'3 1.3 100 / 191002.8 3.2 1.0
2016-Apr-26 23:00N 65°00' E 022°30'0 0.0 080 / 191003.8 3.1 0.6
2016-Apr-26 22:00N 65°00' E 022°30'0 0.0 080 / 211005.0 3.5 0.4
2016-Apr-26 21:00N 65°00' E 022°30'0 0.0 020 / 161006.2 1.2 0.4
2016-Apr-26 20:00N 65°00' E 022°30'14 7.0 010 / 211007.9 0.8 0.4
2016-Apr-26 18:00N 65°06' E 023°00'1212.0 010 / 81009.9 0.9 0.3
2016-Apr-26 17:00N 65°18' E 023°00'10 9.6 350 / 251010.8 1.1 0.3
2016-Apr-26 16:00N 65°24' E 022°42'1211.6 340 / 191012.7 1.3 0.8
2016-Apr-26 15:00N 65°30' E 022°18'0 0.0 010 / 61014.2 2.4 0.6
2016-Apr-26 14:00N 65°30' E 022°18'6 6.5 050 / 61014.6 3.4 0.7
2016-Apr-26 13:00N 65°36' E 022°12'0 0.0 070 / 21015.1 4.0 1.0
2016-Apr-26 12:00N 65°36' E 022°12'0 0.0 100 / 61015.4 4.2 0.9
2016-Apr-26 11:00N 65°36' E 022°12'0 0.0 050 / 61015.8 4.4 1.0
2016-Apr-26 09:00N 65°36' E 022°12'0 0.0 140 / 61016.1 3.4 1.0
2016-Apr-26 08:00N 65°36' E 022°12'0 0.0 160 / 81016.1 2.9 1.0
2016-Apr-25 21:00N 65°36' E 022°12'0 0.0 140 / 121008.2 1.3 1.1
2016-Apr-25 20:00N 65°36' E 022°12'3010.0 130 / 121007.4 1.8 0.6
2016-Apr-25 17:00N 65°06' E 022°18'4113.6 090 / 141003.9 1.0 0.4
2016-Apr-25 14:00N 64°42' E 023°36'1312.8 080 / 231004.3 1.2 0.4
2016-Apr-25 13:00N 64°42' E 024°06'1010.3 090 / 271004.6 2.0 0.6
2016-Apr-25 12:00N 64°42' E 023°42'0 0.0 290 / 121003.5 0.8 0.4
2016-Apr-25 11:00N 64°42' E 023°42'0 0.0 060 / 291004.5 0.9 0.5
2016-Apr-25 10:00N 64°42' E 023°42'13 6.5 060 / 231004.9 1.7 0.5
2016-Apr-25 08:00N 64°54' E 023°54'0 0.0 050 / 231007.9 1.1 0.4
2016-Apr-25 07:00N 64°54' E 023°54'12 3.1 060 / 271007.7 0.4 0.3
2016-Apr-25 03:00N 64°42' E 024°00'0 0.0 060 / 171009.8 -0.3 0.5
2016-Apr-25 01:00N 64°42' E 024°00'0 0.0 060 / 141011.0 -0.1 0.6
2016-Apr-25 00:00N 64°42' E 024°00'0 0.0 060 / 121011.4 -0.1 0.6
2016-Apr-24 22:00N 64°42' E 024°00'3 0.6 060 / 121011.7 0.1 0.6
2016-Apr-24 18:00N 64°42' E 024°06'7 6.5 030 / 141011.7 0.8 0.5
2016-Apr-24 17:00N 64°36' E 024°00'1414.3 050 / 141011.4 0.7 0.5
2016-Apr-24 16:00N 64°24' E 023°42'7 6.5 040 / 211010.8 0.3 1.0
2016-Apr-24 15:00N 64°18' E 023°36'26 3.3 040 / 161011.0 1.4 2.3
2016-Apr-24 07:00N 64°42' E 024°00'0 0.0 030 / 81011.8 -0.4 0.7
2016-Apr-24 06:00N 64°42' E 024°00'0 0.0 030 / 101011.5 -0.4 0.8
2016-Apr-24 03:00N 64°42' E 024°00'0 0.0 010 / 121011.0 -1.0 0.7
2016-Apr-24 02:00N 64°42' E 024°00'0 0.0 020 / 101011.0 0.3 0.6
2016-Apr-24 01:00N 64°42' E 024°00'3 1.3 010 / 141010.9 -0.7 0.6
2016-Apr-23 23:00N 64°42' E 024°06'0 0.0 1010.5 -1.4 0.7
2016-Apr-23 19:00N 64°42' E 024°06'0 0.0 350 / 101009.4 -0.8 0.8
2016-Apr-23 15:00N 64°42' E 024°06'13 3.3 350 / 141008.1 -0.0 0.9
2016-Apr-23 11:00N 64°54' E 023°54'0 0.0 010 / 81008.1 0.5 0.3
2016-Apr-23 07:00N 64°54' E 023°54'0 0.0 030 / 61007.2 0.2 0.3
2016-Apr-23 03:00N 64°54' E 023°54'0 0.0 030 / 81006.6 -0.3 0.3
2016-Apr-23 02:00N 64°54' E 023°54'3 0.4 1006.7 0.2 0.3
2016-Apr-22 19:00N 64°54' E 024°00'0 0.0 330 / 81006.5 -1.1 0.6
2016-Apr-22 17:00N 64°54' E 024°00'0 0.0 320 / 101006.9 0.1 0.7
2016-Apr-22 14:00N 64°54' E 024°00'0 0.0 340 / 121007.0 0.3 0.6
2016-Apr-22 09:00N 64°54' E 024°00'3 0.5 010 / 81007.1 -0.1 0.6
2016-Apr-22 04:00N 64°54' E 023°54'1212.0 050 / 101007.0 -0.6 0.2
2016-Apr-22 03:00N 64°42' E 023°54'5 5.1 020 / 101006.9 -1.8 0.3
2016-Apr-22 02:00N 64°42' E 024°06'0 0.0 020 / 61007.0 -1.2 0.8
2016-Apr-22 01:00N 64°42' E 024°06'0 0.0 010 / 61007.1 -1.4 0.8
2016-Apr-21 23:00N 64°42' E 024°06'0 0.0 010 / 61007.5 -1.1 1.0
2016-Apr-21 21:00N 64°42' E 024°06'0 0.0 030 / 81007.8 -1.3 0.9
2016-Apr-21 19:00N 64°42' E 024°06'3 0.3 210 / 21008.3 -0.9 0.7
2016-Apr-21 09:00N 64°42' E 024°00'0 0.0 280 / 41012.5 -0.8 0.5
2016-Apr-21 08:00N 64°42' E 024°00'3 2.6 010 / 61012.5 -0.9 0.3
2016-Apr-21 07:00N 64°42' E 023°54'1414.2 330 / 41012.9 -0.6 0.4
2016-Apr-21 06:00N 64°54' E 023°36'21 5.2 330 / 41013.2 -1.2 0.3
2016-Apr-21 02:00N 64°36' E 024°00'0 0.0 340 / 121014.2 -0.9 0.5
2016-Apr-21 01:00N 64°36' E 024°00'6 1.2 340 / 101014.4 -0.9 0.4
2016-Apr-20 20:00N 64°42' E 024°00'0 0.0 350 / 161015.5 0.7 0.5
2016-Apr-20 19:00N 64°42' E 024°00'3 2.6 1015.8 1.0 0.4
2016-Apr-20 18:00N 64°42' E 024°06'24 8.0 1015.1 1.0 0.3
2016-Apr-20 15:00N 65°06' E 024°12'13 2.5 350 / 211014.0 1.1 0.5
2016-Apr-20 10:00N 65°06' E 024°42'17 8.7 1011.2 1.1 0.5
2016-Apr-20 08:00N 64°54' E 024°12'5 5.1 020 / 271008.7 0.6 0.3
2016-Apr-20 07:00N 64°54' E 024°00'12 0.9 1009.3 0.3 0.4
2016-Apr-19 18:00N 64°42' E 024°06'   020 / 101001.1 0.4 0.8

Dump ship's entire track history